createdAt,value
2023-06-30T00:00:18.956Z,5.98
2023-06-30T00:01:18.052Z,6.08
2023-06-30T00:02:19.192Z,6.01
2023-06-30T00:03:19.281Z,5.98
2023-06-30T00:04:18.215Z,5.93
2023-06-30T00:05:19.217Z,5.99
2023-06-30T00:06:19.274Z,6.03
2023-06-30T00:07:18.371Z,5.92
2023-06-30T00:08:19.376Z,5.90
2023-06-30T00:09:19.447Z,5.90
2023-06-30T00:10:19.514Z,5.79
2023-06-30T00:11:19.533Z,5.94
2023-06-30T00:12:19.619Z,5.89
2023-06-30T00:13:18.641Z,5.87
2023-06-30T00:14:19.693Z,5.88
2023-06-30T00:15:18.761Z,5.82
2023-06-30T00:16:18.859Z,5.88
2023-06-30T00:17:18.858Z,5.86
2023-06-30T00:18:19.897Z,5.74
2023-06-30T00:19:20.233Z,5.80
2023-06-30T00:20:20.019Z,5.87
2023-06-30T00:21:19.071Z,5.89
2023-06-30T00:22:20.116Z,5.78
2023-06-30T00:23:20.164Z,5.67
2023-06-30T00:24:20.209Z,5.70
2023-06-30T00:25:20.264Z,5.65
2023-06-30T00:26:20.330Z,5.72
2023-06-30T00:27:20.508Z,5.81
2023-06-30T00:28:20.440Z,5.72
2023-06-30T00:29:20.472Z,5.75
2023-06-30T00:30:20.559Z,5.66
2023-06-30T00:31:19.644Z,5.72
2023-06-30T00:32:19.747Z,5.80
2023-06-30T00:33:19.700Z,5.72
2023-06-30T00:34:20.753Z,5.72
2023-06-30T00:35:19.823Z,5.75
2023-06-30T00:36:20.852Z,5.53
2023-06-30T00:37:20.901Z,5.62
2023-06-30T00:38:20.032Z,5.74
2023-06-30T00:39:20.004Z,5.58
2023-06-30T00:40:21.052Z,5.64
2023-06-30T00:41:21.095Z,5.56
2023-06-30T00:42:21.185Z,5.56
2023-06-30T00:43:20.230Z,5.59
2023-06-30T00:44:21.254Z,5.69
2023-06-30T00:45:20.312Z,5.71
2023-06-30T00:46:21.386Z,5.61
2023-06-30T00:47:20.461Z,5.59
2023-06-30T00:48:20.481Z,5.67
2023-06-30T00:49:21.524Z,5.77
2023-06-30T00:50:21.673Z,5.52
2023-06-30T00:51:20.627Z,5.61
2023-06-30T00:52:21.669Z,5.58
2023-06-30T00:53:21.740Z,5.65
2023-06-30T00:54:21.772Z,5.60
2023-06-30T00:55:21.846Z,5.50
2023-06-30T00:56:21.882Z,5.63
2023-06-30T00:57:20.937Z,5.59
2023-06-30T00:58:21.999Z,5.56
2023-06-30T00:59:22.029Z,5.62
2023-06-30T01:00:22.090Z,5.49
2023-06-30T01:01:21.141Z,5.55
2023-06-30T01:02:21.236Z,5.59
2023-06-30T01:03:21.450Z,5.58
2023-06-30T01:04:22.349Z,5.42
2023-06-30T01:05:22.384Z,5.54
2023-06-30T01:06:21.414Z,5.48
2023-06-30T01:07:21.443Z,5.54
2023-06-30T01:08:21.512Z,5.41
2023-06-30T01:09:22.550Z,5.51
2023-06-30T01:10:22.610Z,5.54
2023-06-30T01:11:21.632Z,5.57
2023-06-30T01:12:21.694Z,5.56
2023-06-30T01:13:22.784Z,5.44
2023-06-30T01:14:22.832Z,5.53
2023-06-30T01:15:21.849Z,5.55
2023-06-30T01:16:22.925Z,5.54
2023-06-30T01:17:22.977Z,5.50
2023-06-30T01:18:22.003Z,5.47
2023-06-30T01:19:22.051Z,5.43
2023-06-30T01:20:22.112Z,5.42
2023-06-30T01:21:22.150Z,5.48
2023-06-30T01:22:22.197Z,5.38
2023-06-30T01:23:22.270Z,5.38
2023-06-30T01:24:23.303Z,5.44
2023-06-30T01:25:22.452Z,5.38
2023-06-30T01:26:22.420Z,5.39
2023-06-30T01:27:22.467Z,5.41
2023-06-30T01:28:23.506Z,5.40
2023-06-30T01:29:23.579Z,5.35
2023-06-30T01:30:22.637Z,5.34
2023-06-30T01:31:22.696Z,5.42
2023-06-30T01:32:23.719Z,5.34
2023-06-30T01:33:23.769Z,5.36
2023-06-30T01:34:23.813Z,5.38
2023-06-30T01:35:23.880Z,5.33
2023-06-30T01:36:23.923Z,5.31
2023-06-30T01:37:23.975Z,5.38
2023-06-30T01:38:23.038Z,5.31
2023-06-30T01:39:23.078Z,5.31
2023-06-30T01:40:23.138Z,5.32
2023-06-30T01:41:24.187Z,5.25
2023-06-30T01:42:24.240Z,5.29
2023-06-30T01:43:24.302Z,5.31
2023-06-30T01:44:23.335Z,5.32
2023-06-30T01:45:23.386Z,5.33
2023-06-30T01:46:24.486Z,5.16
2023-06-30T01:47:24.507Z,5.18
2023-06-30T01:48:24.543Z,5.20
2023-06-30T01:49:24.598Z,5.30
2023-06-30T01:50:24.639Z,5.19
2023-06-30T01:51:23.689Z,5.13
2023-06-30T01:52:23.736Z,5.20
2023-06-30T01:53:24.801Z,5.06
2023-06-30T01:54:24.841Z,5.19
2023-06-30T01:55:24.900Z,5.12
2023-06-30T01:56:24.944Z,5.15
2023-06-30T01:57:24.999Z,5.19
2023-06-30T01:58:25.039Z,5.18
2023-06-30T01:59:25.092Z,5.03
2023-06-30T02:00:25.155Z,5.12
2023-06-30T02:01:25.239Z,5.11
2023-06-30T02:02:24.414Z,5.13
2023-06-30T02:03:24.444Z,5.06
2023-06-30T02:04:24.364Z,5.05
2023-06-30T02:05:25.413Z,5.14
2023-06-30T02:06:25.452Z,5.11
2023-06-30T02:07:24.582Z,5.17
2023-06-30T02:08:25.548Z,5.08
2023-06-30T02:09:30.921Z,5.09
2023-06-30T02:10:25.616Z,5.10
2023-06-30T02:11:24.605Z,5.11
2023-06-30T02:12:25.572Z,5.14
2023-06-30T02:13:24.572Z,5.16
2023-06-30T02:14:25.560Z,5.14
2023-06-30T02:15:25.570Z,5.18
2023-06-30T02:16:24.636Z,5.13
2023-06-30T02:17:24.593Z,5.12
2023-06-30T02:18:25.598Z,5.20
2023-06-30T02:19:24.539Z,5.12
2023-06-30T02:20:24.548Z,5.07
2023-06-30T02:21:24.590Z,4.95
2023-06-30T02:22:24.922Z,5.02
2023-06-30T02:23:25.717Z,5.08
2023-06-30T02:24:25.795Z,4.96
2023-06-30T02:25:24.787Z,5.03
2023-06-30T02:26:25.844Z,5.02
2023-06-30T02:27:24.932Z,4.94
2023-06-30T02:28:25.951Z,5.07
2023-06-30T02:29:24.999Z,4.95
2023-06-30T02:30:25.053Z,5.01
2023-06-30T02:31:26.146Z,4.96
2023-06-30T02:32:26.188Z,4.93
2023-06-30T02:33:25.231Z,4.84
2023-06-30T02:34:26.284Z,4.93
2023-06-30T02:35:26.364Z,4.97
2023-06-30T02:36:26.364Z,5.01
2023-06-30T02:37:26.429Z,4.90
2023-06-30T02:38:26.481Z,4.93
2023-06-30T02:39:26.532Z,4.91
2023-06-30T02:40:26.577Z,4.94
2023-06-30T02:41:26.633Z,4.87
2023-06-30T02:42:26.692Z,4.93
2023-06-30T02:43:26.105Z,4.97
2023-06-30T02:44:25.798Z,4.86
2023-06-30T02:45:26.908Z,4.92
2023-06-30T02:46:27.072Z,4.86
2023-06-30T02:47:26.043Z,4.94
2023-06-30T02:48:27.025Z,4.92
2023-06-30T02:49:26.076Z,4.91
2023-06-30T02:50:26.142Z,4.82
2023-06-30T02:51:26.170Z,4.84
2023-06-30T02:52:27.222Z,4.73
2023-06-30T02:53:27.280Z,4.85
2023-06-30T02:54:27.322Z,4.87
2023-06-30T02:55:27.359Z,4.79
2023-06-30T02:56:27.432Z,4.73
2023-06-30T02:57:26.490Z,4.70
2023-06-30T02:58:26.568Z,4.79
2023-06-30T02:59:26.582Z,4.75
2023-06-30T03:00:27.765Z,4.72
2023-06-30T03:01:26.787Z,4.70
2023-06-30T03:02:26.953Z,4.74
2023-06-30T03:03:26.946Z,4.64
2023-06-30T03:04:26.845Z,4.77
2023-06-30T03:05:27.941Z,4.79
2023-06-30T03:06:27.968Z,4.68
2023-06-30T03:07:28.071Z,4.60
2023-06-30T03:08:27.108Z,4.66
2023-06-30T03:09:27.153Z,4.66
2023-06-30T03:10:28.211Z,4.60
2023-06-30T03:11:27.241Z,4.62
2023-06-30T03:12:28.291Z,4.59
2023-06-30T03:13:28.402Z,4.65
2023-06-30T03:14:27.400Z,4.64
2023-06-30T03:15:27.506Z,4.60
2023-06-30T03:16:27.528Z,4.58
2023-06-30T03:17:28.606Z,4.61
2023-06-30T03:18:27.615Z,4.53
2023-06-30T03:19:27.673Z,4.67
2023-06-30T03:20:28.732Z,4.63
2023-06-30T03:21:27.800Z,4.52
2023-06-30T03:22:27.860Z,4.58
2023-06-30T03:23:28.921Z,4.53
2023-06-30T03:24:29.046Z,4.54
2023-06-30T03:25:29.015Z,4.58
2023-06-30T03:26:29.068Z,4.49
2023-06-30T03:27:29.131Z,4.49
2023-06-30T03:28:28.191Z,4.53
2023-06-30T03:29:29.237Z,4.41
2023-06-30T03:30:29.296Z,4.44
2023-06-30T03:31:29.530Z,4.53
2023-06-30T03:32:28.429Z,4.52
2023-06-30T03:33:28.482Z,4.52
2023-06-30T03:34:29.495Z,4.44
2023-06-30T03:35:29.586Z,4.50
2023-06-30T03:36:29.637Z,4.50
2023-06-30T03:37:28.697Z,4.40
2023-06-30T03:38:28.755Z,4.36
2023-06-30T03:39:29.805Z,4.45
2023-06-30T03:40:28.891Z,4.43
2023-06-30T03:41:29.941Z,4.42
2023-06-30T03:42:28.962Z,4.41
2023-06-30T03:43:30.046Z,4.33
2023-06-30T03:44:30.092Z,4.35
2023-06-30T03:45:30.152Z,4.33
2023-06-30T03:46:29.278Z,4.42
2023-06-30T03:47:30.280Z,4.42
2023-06-30T03:48:30.349Z,4.30
2023-06-30T03:49:29.425Z,4.37
2023-06-30T03:50:29.449Z,4.34
2023-06-30T03:51:30.499Z,4.33
2023-06-30T03:52:30.571Z,4.33
2023-06-30T03:53:30.679Z,4.29
2023-06-30T03:54:30.675Z,4.26
2023-06-30T03:55:30.747Z,4.38
2023-06-30T03:56:30.791Z,4.32
2023-06-30T03:57:30.851Z,4.20
2023-06-30T03:58:29.902Z,4.23
2023-06-30T03:59:29.958Z,4.31
2023-06-30T04:00:31.027Z,4.28
2023-06-30T04:01:30.084Z,4.19
2023-06-30T04:02:31.213Z,4.26
2023-06-30T04:03:30.356Z,4.21
2023-06-30T04:04:31.343Z,4.24
2023-06-30T04:05:30.327Z,4.17
2023-06-30T04:06:31.405Z,4.24
2023-06-30T04:07:30.521Z,4.20
2023-06-30T04:08:31.645Z,4.20
2023-06-30T04:09:31.594Z,4.22
2023-06-30T04:10:31.619Z,4.14
2023-06-30T04:11:31.692Z,4.22
2023-06-30T04:12:30.747Z,4.20
2023-06-30T04:13:30.780Z,4.22
2023-06-30T04:14:31.850Z,4.12
2023-06-30T04:15:30.901Z,4.19
2023-06-30T04:16:31.005Z,4.17
2023-06-30T04:17:31.036Z,4.05
2023-06-30T04:18:31.103Z,4.15
2023-06-30T04:19:31.162Z,4.15
2023-06-30T04:20:31.226Z,4.10
2023-06-30T04:21:32.268Z,4.06
2023-06-30T04:22:31.335Z,4.05
2023-06-30T04:23:32.383Z,4.12
2023-06-30T04:24:32.458Z,4.06
2023-06-30T04:25:32.526Z,4.15
2023-06-30T04:26:32.574Z,4.01
2023-06-30T04:27:32.625Z,4.09
2023-06-30T04:28:32.693Z,4.01
2023-06-30T04:29:31.725Z,4.01
2023-06-30T04:30:31.802Z,4.00
2023-06-30T04:31:31.853Z,3.97
2023-06-30T04:32:33.031Z,4.07
2023-06-30T04:33:31.980Z,3.97
2023-06-30T04:34:32.043Z,4.06
2023-06-30T04:35:32.120Z,3.96
2023-06-30T04:36:32.158Z,3.99
2023-06-30T04:37:33.198Z,3.93
2023-06-30T04:38:32.332Z,3.99
2023-06-30T04:39:33.325Z,3.96
2023-06-30T04:40:32.380Z,3.92
2023-06-30T04:41:33.486Z,3.92
2023-06-30T04:42:33.523Z,3.92
2023-06-30T04:43:33.573Z,3.86
2023-06-30T04:44:32.635Z,3.93
2023-06-30T04:45:33.686Z,3.96
2023-06-30T04:46:33.796Z,3.90
2023-06-30T04:47:33.931Z,3.81
2023-06-30T04:48:33.879Z,3.94
2023-06-30T04:49:33.939Z,3.85
2023-06-30T04:50:33.992Z,3.91
2023-06-30T04:51:34.071Z,3.92
2023-06-30T04:52:33.105Z,3.88
2023-06-30T04:53:34.201Z,3.86
2023-06-30T04:54:34.257Z,3.92
2023-06-30T04:55:34.297Z,3.83
2023-06-30T04:56:33.364Z,3.90
2023-06-30T04:57:34.437Z,3.88
2023-06-30T04:58:33.477Z,3.86
2023-06-30T04:59:33.530Z,3.98
2023-06-30T05:00:33.581Z,3.78
2023-06-30T05:01:33.655Z,3.86
2023-06-30T05:02:33.761Z,3.85
2023-06-30T05:03:34.856Z,3.82
2023-06-30T05:04:34.813Z,3.84
2023-06-30T05:05:34.921Z,3.89
2023-06-30T05:06:33.937Z,3.80
2023-06-30T05:07:34.132Z,3.76
2023-06-30T05:08:35.055Z,3.79
2023-06-30T05:09:35.117Z,3.84
2023-06-30T05:10:35.195Z,3.81
2023-06-30T05:11:35.226Z,3.86
2023-06-30T05:12:34.273Z,3.74
2023-06-30T05:13:34.396Z,3.83
2023-06-30T05:14:35.392Z,3.75
2023-06-30T05:15:35.486Z,3.75
2023-06-30T05:16:35.010Z,3.80
2023-06-30T05:17:35.718Z,3.76
2023-06-30T05:18:34.622Z,3.70
2023-06-30T05:19:34.704Z,3.67
2023-06-30T05:20:34.743Z,3.74
2023-06-30T05:21:34.819Z,3.69
2023-06-30T05:22:35.889Z,3.69
2023-06-30T05:23:35.980Z,3.69
2023-06-30T05:24:34.986Z,3.61
2023-06-30T05:25:35.064Z,3.69
2023-06-30T05:26:36.090Z,3.64
2023-06-30T05:27:35.160Z,3.62
2023-06-30T05:28:36.200Z,3.63
2023-06-30T05:29:36.273Z,3.71
2023-06-30T05:30:35.306Z,3.66
2023-06-30T05:31:36.454Z,3.70
2023-06-30T05:32:36.493Z,3.78
2023-06-30T05:33:36.471Z,3.82
2023-06-30T05:34:35.541Z,3.93
2023-06-30T05:35:35.629Z,3.97
2023-06-30T05:36:37.678Z,3.89
2023-06-30T05:37:36.714Z,4.05
2023-06-30T05:38:36.774Z,4.16
2023-06-30T05:39:36.814Z,4.08
2023-06-30T05:40:36.867Z,4.36
2023-06-30T05:41:36.923Z,4.39
2023-06-30T05:42:36.973Z,4.52
2023-06-30T05:43:37.018Z,4.63
2023-06-30T05:44:37.093Z,4.72
2023-06-30T05:45:37.145Z,4.76
2023-06-30T05:46:37.228Z,5.04
2023-06-30T05:47:37.271Z,5.17
2023-06-30T05:48:36.270Z,5.41
2023-06-30T05:49:37.346Z,5.50
2023-06-30T05:50:37.381Z,5.63
2023-06-30T05:51:37.447Z,6.15
2023-06-30T05:52:37.497Z,6.33
2023-06-30T05:53:37.562Z,6.46
2023-06-30T05:54:36.590Z,6.50
2023-06-30T05:55:36.617Z,7.22
2023-06-30T05:56:37.689Z,7.36
2023-06-30T05:57:37.680Z,7.49
2023-06-30T05:58:36.705Z,7.63
2023-06-30T05:59:36.784Z,8.22
2023-06-30T06:00:36.750Z,8.65
2023-06-30T06:01:36.806Z,8.86
2023-06-30T06:02:37.867Z,9.49
2023-06-30T06:03:38.088Z,9.96
2023-06-30T06:04:37.965Z,10.33
2023-06-30T06:05:37.971Z,11.10
2023-06-30T06:06:37.889Z,12.25
2023-06-30T06:07:37.976Z,13.28
2023-06-30T06:08:37.888Z,13.75
2023-06-30T06:09:36.892Z,14.37
2023-06-30T06:10:37.904Z,15.91
2023-06-30T06:11:36.905Z,16.83
2023-06-30T06:12:37.929Z,16.90
2023-06-30T06:13:37.934Z,16.90
2023-06-30T06:14:36.939Z,16.84
2023-06-30T06:15:36.945Z,16.70
2023-06-30T06:16:38.035Z,17.23
2023-06-30T06:17:37.065Z,17.60
2023-06-30T06:18:37.996Z,17.64
2023-06-30T06:19:37.037Z,17.33
2023-06-30T06:20:37.052Z,17.25
2023-06-30T06:21:37.079Z,17.55
2023-06-30T06:22:38.681Z,17.36
2023-06-30T06:23:37.104Z,17.44
2023-06-30T06:24:38.109Z,17.22
2023-06-30T06:25:38.135Z,16.71
2023-06-30T06:26:38.186Z,16.53
2023-06-30T06:27:38.181Z,16.68
2023-06-30T06:28:38.227Z,17.46
2023-06-30T06:29:37.249Z,17.52
2023-06-30T06:30:37.287Z,17.07
2023-06-30T06:31:39.179Z,17.01
2023-06-30T06:32:37.388Z,16.95
2023-06-30T06:33:37.387Z,16.81
2023-06-30T06:34:38.390Z,16.54
2023-06-30T06:35:38.414Z,16.77
2023-06-30T06:36:38.424Z,16.77
2023-06-30T06:37:37.462Z,17.34
2023-06-30T06:38:37.492Z,17.26
2023-06-30T06:39:37.514Z,17.07
2023-06-30T06:40:38.539Z,17.26
2023-06-30T06:41:38.567Z,17.11
2023-06-30T06:42:38.585Z,16.44
2023-06-30T06:43:37.629Z,16.29
2023-06-30T06:44:40.559Z,15.61
2023-06-30T06:45:37.652Z,16.11
2023-06-30T06:46:37.733Z,15.94
2023-06-30T06:47:37.754Z,15.67
2023-06-30T06:48:38.662Z,15.65
2023-06-30T06:49:38.657Z,16.01
2023-06-30T06:50:38.608Z,15.18
2023-06-30T06:51:37.638Z,14.69
2023-06-30T06:52:37.640Z,15.82
2023-06-30T06:53:38.638Z,15.55
2023-06-30T06:54:38.604Z,14.60
2023-06-30T06:55:37.609Z,14.34
2023-06-30T06:56:38.585Z,14.44
2023-06-30T06:57:38.589Z,13.94
2023-06-30T06:58:37.570Z,13.79
2023-06-30T06:59:38.558Z,13.90
2023-06-30T07:00:37.554Z,13.73
2023-06-30T07:01:38.617Z,13.23
2023-06-30T07:02:37.709Z,13.68
2023-06-30T07:03:38.591Z,12.85
2023-06-30T07:04:37.534Z,12.88
2023-06-30T07:05:38.526Z,13.52
2023-06-30T07:06:37.495Z,13.26
2023-06-30T07:07:37.554Z,13.48
2023-06-30T07:08:37.494Z,13.33
2023-06-30T07:09:37.513Z,12.37
2023-06-30T07:10:38.470Z,12.32
2023-06-30T07:11:38.454Z,12.51
2023-06-30T07:12:37.457Z,12.68
2023-06-30T07:13:38.454Z,12.93
2023-06-30T07:14:38.464Z,12.67
2023-06-30T07:15:38.450Z,12.66
2023-06-30T07:16:38.524Z,12.31
2023-06-30T07:17:37.542Z,12.75
2023-06-30T07:18:37.500Z,12.60
2023-06-30T07:19:38.405Z,12.06
2023-06-30T07:20:37.402Z,12.25
2023-06-30T07:21:38.428Z,12.39
2023-06-30T07:22:37.388Z,12.01
2023-06-30T07:23:38.397Z,11.73
2023-06-30T07:24:43.439Z,11.57
2023-06-30T07:25:38.373Z,11.59
2023-06-30T07:26:38.370Z,11.64
2023-06-30T07:27:37.354Z,11.32
2023-06-30T07:28:38.339Z,11.42
2023-06-30T07:29:38.361Z,11.38
2023-06-30T07:30:38.375Z,11.34
2023-06-30T07:31:37.680Z,11.30
2023-06-30T07:32:37.384Z,11.18
2023-06-30T07:33:38.310Z,10.55
2023-06-30T07:34:38.788Z,10.73
2023-06-30T07:35:37.303Z,10.28
2023-06-30T07:36:38.321Z,10.37
2023-06-30T07:37:38.409Z,10.41
2023-06-30T07:38:37.279Z,10.19
2023-06-30T07:39:38.317Z,10.25
2023-06-30T07:40:53.878Z,10.15
2023-06-30T07:41:38.283Z,10.17
2023-06-30T07:42:37.286Z,10.11
2023-06-30T07:43:38.283Z,10.21
2023-06-30T07:44:38.262Z,10.10
2023-06-30T07:45:37.297Z,9.83
2023-06-30T07:46:37.280Z,9.98
2023-06-30T07:47:37.350Z,9.88
2023-06-30T07:48:37.292Z,9.95
2023-06-30T07:49:37.246Z,10.28
2023-06-30T07:50:37.200Z,10.55
2023-06-30T07:51:37.209Z,10.61
2023-06-30T07:52:37.190Z,11.07
2023-06-30T07:53:37.212Z,11.08
2023-06-30T07:54:38.213Z,11.16
2023-06-30T07:55:37.198Z,11.33
2023-06-30T07:56:38.181Z,11.03
2023-06-30T07:57:38.183Z,10.95
2023-06-30T07:58:38.234Z,11.07
2023-06-30T07:59:37.252Z,10.88
2023-06-30T08:00:37.300Z,10.89
2023-06-30T08:01:38.343Z,10.83
2023-06-30T08:02:38.435Z,10.72
2023-06-30T08:03:38.592Z,10.82
2023-06-30T08:04:37.685Z,10.87
2023-06-30T08:05:37.552Z,10.60
2023-06-30T08:06:37.530Z,10.53
2023-06-30T08:07:48.610Z,10.53
2023-06-30T08:08:38.534Z,10.54
2023-06-30T08:09:37.570Z,10.55
2023-06-30T08:10:39.914Z,10.60
2023-06-30T08:11:37.506Z,10.90
2023-06-30T08:12:38.511Z,11.71
2023-06-30T08:13:38.523Z,11.82
2023-06-30T08:14:38.514Z,11.38
2023-06-30T08:15:37.523Z,10.92
2023-06-30T08:16:38.557Z,11.15
2023-06-30T08:17:54.080Z,11.27
2023-06-30T08:18:38.538Z,11.29
2023-06-30T08:19:47.654Z,11.30
2023-06-30T08:20:38.469Z,11.33
2023-06-30T08:21:37.494Z,11.44
2023-06-30T08:22:37.430Z,11.39
2023-06-30T08:23:38.438Z,11.36
2023-06-30T08:24:37.430Z,11.08
2023-06-30T08:25:37.481Z,11.25
2023-06-30T08:26:38.498Z,10.97
2023-06-30T08:27:38.452Z,10.85
2023-06-30T08:28:37.416Z,10.82
2023-06-30T08:29:38.437Z,10.90
2023-06-30T08:30:38.398Z,10.74
2023-06-30T08:31:38.442Z,10.74
2023-06-30T08:32:38.404Z,10.61
2023-06-30T08:33:40.362Z,10.51
2023-06-30T08:34:37.380Z,10.54
2023-06-30T08:35:37.370Z,10.58
2023-06-30T08:36:38.365Z,10.66
2023-06-30T08:37:38.364Z,10.82
2023-06-30T08:38:38.329Z,11.06
2023-06-30T08:39:38.339Z,10.86
2023-06-30T08:40:38.321Z,10.77
2023-06-30T08:41:38.362Z,10.80
2023-06-30T08:42:37.360Z,10.74
2023-06-30T08:43:37.341Z,10.68
2023-06-30T08:44:37.341Z,10.81
2023-06-30T08:45:38.324Z,10.54
2023-06-30T08:46:38.379Z,10.72
2023-06-30T08:47:38.347Z,10.66
2023-06-30T08:48:37.265Z,10.86
2023-06-30T08:49:37.275Z,10.61
2023-06-30T08:50:37.275Z,10.76
2023-06-30T08:51:38.242Z,10.54
2023-06-30T08:52:37.282Z,10.82
2023-06-30T08:53:38.236Z,10.74
2023-06-30T08:54:37.274Z,10.61
2023-06-30T08:55:38.220Z,10.37
2023-06-30T08:56:38.239Z,10.41
2023-06-30T08:57:37.247Z,10.36
2023-06-30T08:58:37.218Z,10.62
2023-06-30T08:59:38.228Z,10.58
2023-06-30T09:00:38.211Z,10.56
2023-06-30T09:01:37.332Z,10.52
2023-06-30T09:02:37.382Z,10.55
2023-06-30T09:03:37.272Z,10.49
2023-06-30T09:04:38.221Z,10.32
2023-06-30T09:05:37.481Z,10.11
2023-06-30T09:06:38.160Z,10.22
2023-06-30T09:07:38.259Z,10.44
2023-06-30T09:08:38.133Z,10.79
2023-06-30T09:09:37.132Z,10.83
2023-06-30T09:10:38.156Z,10.53
2023-06-30T09:11:37.106Z,10.42
2023-06-30T09:12:37.143Z,10.42
2023-06-30T09:13:37.152Z,10.21
2023-06-30T09:14:38.131Z,10.39
2023-06-30T09:15:37.164Z,10.34
2023-06-30T09:16:38.277Z,10.48
2023-06-30T09:17:37.844Z,10.51
2023-06-30T09:18:38.259Z,10.41
2023-06-30T09:19:37.299Z,10.38
2023-06-30T09:20:38.390Z,10.16
2023-06-30T09:21:38.371Z,10.35
2023-06-30T09:22:53.307Z,10.17
2023-06-30T09:23:38.365Z,10.19
2023-06-30T09:24:37.424Z,10.26
2023-06-30T09:25:37.481Z,10.30
2023-06-30T09:26:38.330Z,10.50
2023-06-30T09:27:38.338Z,10.32
2023-06-30T09:28:37.360Z,10.19
2023-06-30T09:29:37.360Z,10.15
2023-06-30T09:30:38.304Z,10.35
2023-06-30T09:31:38.379Z,10.20
2023-06-30T09:32:38.340Z,10.24
2023-06-30T09:33:38.290Z,10.01
2023-06-30T09:34:38.283Z,10.15
2023-06-30T09:35:38.301Z,10.19
2023-06-30T09:36:38.279Z,10.01
2023-06-30T09:37:38.277Z,10.09
2023-06-30T09:38:37.265Z,10.17
2023-06-30T09:39:37.272Z,10.06
2023-06-30T09:40:38.247Z,10.03
2023-06-30T09:41:37.230Z,10.09
2023-06-30T09:42:38.249Z,9.85
2023-06-30T09:43:38.237Z,10.18
2023-06-30T09:44:38.212Z,9.79
2023-06-30T09:45:38.230Z,9.72
2023-06-30T09:46:38.279Z,9.84
2023-06-30T09:47:38.229Z,9.94
2023-06-30T09:48:38.182Z,9.70
2023-06-30T09:49:38.214Z,9.75
2023-06-30T09:50:37.180Z,9.76
2023-06-30T09:51:38.157Z,9.64
2023-06-30T09:52:38.151Z,9.63
2023-06-30T09:53:38.159Z,9.78
2023-06-30T09:54:44.511Z,9.44
2023-06-30T09:55:38.137Z,9.46
2023-06-30T09:56:38.150Z,9.55
2023-06-30T09:57:37.134Z,9.66
2023-06-30T09:58:37.182Z,9.64
2023-06-30T09:59:37.100Z,9.57
2023-06-30T10:00:37.420Z,9.31
2023-06-30T10:01:37.259Z,9.47
2023-06-30T10:02:37.141Z,9.47
2023-06-30T10:03:38.243Z,9.44
2023-06-30T10:04:38.576Z,9.38
2023-06-30T10:05:38.100Z,9.39
2023-06-30T10:06:37.047Z,9.27
2023-06-30T10:07:37.108Z,9.17
2023-06-30T10:08:37.026Z,8.99
2023-06-30T10:09:38.020Z,8.95
2023-06-30T10:10:37.038Z,9.06
2023-06-30T10:11:38.043Z,8.86
2023-06-30T10:12:38.126Z,8.72
2023-06-30T10:13:37.020Z,9.00
2023-06-30T10:14:37.012Z,8.85
2023-06-30T10:15:38.042Z,8.94
2023-06-30T10:16:37.008Z,8.73
2023-06-30T10:17:37.133Z,8.86
2023-06-30T10:18:38.005Z,8.91
2023-06-30T10:19:36.953Z,9.07
2023-06-30T10:20:47.298Z,8.95
2023-06-30T10:21:37.976Z,8.96
2023-06-30T10:22:36.951Z,9.00
2023-06-30T10:23:37.928Z,9.09
2023-06-30T10:24:37.927Z,9.08
2023-06-30T10:25:36.949Z,9.06
2023-06-30T10:26:37.931Z,8.91
2023-06-30T10:27:37.945Z,8.95
2023-06-30T10:28:37.918Z,9.12
2023-06-30T10:29:36.916Z,9.55
2023-06-30T10:30:37.909Z,10.09
2023-06-30T10:31:37.961Z,10.49
2023-06-30T10:32:36.996Z,11.30
2023-06-30T10:33:37.972Z,12.40
2023-06-30T10:34:37.896Z,13.22
2023-06-30T10:35:37.874Z,14.07
2023-06-30T10:36:36.864Z,15.19
2023-06-30T10:37:36.892Z,15.66
2023-06-30T10:38:37.845Z,16.52
2023-06-30T10:39:37.840Z,17.40
2023-06-30T10:40:36.959Z,17.98
2023-06-30T10:41:37.831Z,18.46
2023-06-30T10:42:36.819Z,18.49
2023-06-30T10:43:37.815Z,19.11
2023-06-30T10:44:37.817Z,18.78
2023-06-30T10:45:36.844Z,18.76
2023-06-30T10:46:36.804Z,19.15
2023-06-30T10:47:36.857Z,19.10
2023-06-30T10:48:36.776Z,19.73
2023-06-30T10:49:37.831Z,19.42
2023-06-30T10:50:36.783Z,19.36
2023-06-30T10:51:36.765Z,20.65
2023-06-30T10:52:37.817Z,19.40
2023-06-30T10:53:37.762Z,19.81
2023-06-30T10:54:36.749Z,19.77
2023-06-30T10:55:36.736Z,19.43
2023-06-30T10:56:37.725Z,19.45
2023-06-30T10:57:37.736Z,19.44
2023-06-30T10:58:37.707Z,19.55
2023-06-30T10:59:37.719Z,19.40
2023-06-30T11:00:37.739Z,19.33
2023-06-30T11:01:36.707Z,19.77
2023-06-30T11:02:36.727Z,19.49
2023-06-30T11:03:37.786Z,19.40
2023-06-30T11:04:38.000Z,19.47
2023-06-30T11:05:37.713Z,19.63
2023-06-30T11:06:36.660Z,19.48
2023-06-30T11:07:36.738Z,18.88
2023-06-30T11:08:37.648Z,18.90
2023-06-30T11:09:37.648Z,18.80
2023-06-30T11:10:36.661Z,18.94
2023-06-30T11:11:36.629Z,18.83
2023-06-30T11:12:36.618Z,19.10
2023-06-30T11:13:37.613Z,18.51
2023-06-30T11:14:37.617Z,18.74
2023-06-30T11:15:36.655Z,17.91
2023-06-30T11:16:36.596Z,17.24
2023-06-30T11:17:37.642Z,18.02
2023-06-30T11:18:36.717Z,18.02
2023-06-30T11:19:36.619Z,17.21
2023-06-30T11:20:36.574Z,17.35
2023-06-30T11:21:37.590Z,17.23
2023-06-30T11:22:37.568Z,17.26
2023-06-30T11:23:36.539Z,16.78
2023-06-30T11:24:37.537Z,16.04
2023-06-30T11:25:37.546Z,16.24
2023-06-30T11:26:36.526Z,16.03
2023-06-30T11:27:37.544Z,15.84
2023-06-30T11:28:36.511Z,16.59
2023-06-30T11:29:37.546Z,17.32
2023-06-30T11:30:37.588Z,16.51
2023-06-30T11:31:37.489Z,15.96
2023-06-30T11:32:36.512Z,15.66
2023-06-30T11:33:37.474Z,16.04
2023-06-30T11:34:36.470Z,15.39
2023-06-30T11:35:36.470Z,16.13
2023-06-30T11:36:37.482Z,16.18
2023-06-30T11:37:37.496Z,15.71
2023-06-30T11:38:36.428Z,14.75
2023-06-30T11:39:36.454Z,15.38
2023-06-30T11:40:37.433Z,15.62
2023-06-30T11:41:36.424Z,15.60
2023-06-30T11:42:37.443Z,15.14
2023-06-30T11:43:36.407Z,15.41
2023-06-30T11:44:37.398Z,14.07
2023-06-30T11:45:36.489Z,14.17
2023-06-30T11:46:36.465Z,14.45
2023-06-30T11:47:37.478Z,13.75
2023-06-30T11:48:36.451Z,13.22
2023-06-30T11:49:37.482Z,13.17
2023-06-30T11:50:36.494Z,13.35
2023-06-30T11:51:37.495Z,12.94
2023-06-30T11:52:36.510Z,12.96
2023-06-30T11:53:37.558Z,12.54
2023-06-30T11:54:36.553Z,12.86
2023-06-30T11:55:36.559Z,13.14
2023-06-30T11:56:37.574Z,13.84
2023-06-30T11:57:36.587Z,13.68
2023-06-30T11:58:37.596Z,13.72
2023-06-30T11:59:37.600Z,13.82
2023-06-30T12:00:37.634Z,13.39
2023-06-30T12:01:36.654Z,13.63
2023-06-30T12:02:37.723Z,13.51
2023-06-30T12:03:37.829Z,13.12
2023-06-30T12:04:36.986Z,13.28
2023-06-30T12:05:37.778Z,13.46
2023-06-30T12:06:37.727Z,13.17
2023-06-30T12:07:36.789Z,12.78
2023-06-30T12:08:37.742Z,13.05
2023-06-30T12:09:37.796Z,13.12
2023-06-30T12:10:36.827Z,12.88
2023-06-30T12:11:37.802Z,12.81
2023-06-30T12:12:36.876Z,12.64
2023-06-30T12:13:36.849Z,12.78
2023-06-30T12:14:36.849Z,12.77
2023-06-30T12:15:37.942Z,12.71
2023-06-30T12:16:36.982Z,12.54
2023-06-30T12:17:38.017Z,12.54
2023-06-30T12:18:37.036Z,12.23
2023-06-30T12:19:38.000Z,12.11
2023-06-30T12:20:37.313Z,12.00
2023-06-30T12:21:37.014Z,12.16
2023-06-30T12:22:37.022Z,12.14
2023-06-30T12:23:37.056Z,11.63
2023-06-30T12:24:38.059Z,12.03
2023-06-30T12:25:38.119Z,11.50
2023-06-30T12:26:38.107Z,11.67
2023-06-30T12:27:37.116Z,11.71
2023-06-30T12:28:37.113Z,11.75
2023-06-30T12:29:37.599Z,10.75
2023-06-30T12:30:38.154Z,11.24
2023-06-30T12:31:37.248Z,11.44
2023-06-30T12:32:38.200Z,11.18
2023-06-30T12:33:37.265Z,11.30
2023-06-30T12:34:37.365Z,11.18
2023-06-30T12:35:37.229Z,10.50
2023-06-30T12:36:37.284Z,9.89
2023-06-30T12:37:38.332Z,9.76
2023-06-30T12:38:38.322Z,8.60
2023-06-30T12:39:37.413Z,8.32
2023-06-30T12:40:38.400Z,7.38
2023-06-30T12:41:37.482Z,7.32
2023-06-30T12:42:38.481Z,7.72
2023-06-30T12:43:38.793Z,7.45
2023-06-30T12:44:37.570Z,7.40
2023-06-30T12:45:38.607Z,7.18
2023-06-30T12:46:37.691Z,7.21
2023-06-30T12:47:38.725Z,7.17
2023-06-30T12:48:38.731Z,7.28
2023-06-30T12:49:38.778Z,7.52
2023-06-30T12:50:37.833Z,7.75
2023-06-30T12:51:38.831Z,7.86
2023-06-30T12:52:38.872Z,8.04
2023-06-30T12:53:37.897Z,8.32
2023-06-30T12:54:38.937Z,8.25
2023-06-30T12:55:37.959Z,8.14
2023-06-30T12:56:38.015Z,8.61
2023-06-30T12:57:39.068Z,8.81
2023-06-30T12:58:38.057Z,8.82
2023-06-30T12:59:38.077Z,9.29
2023-06-30T13:00:38.137Z,9.57
2023-06-30T13:01:38.187Z,9.57
2023-06-30T13:02:38.262Z,9.74
2023-06-30T13:03:38.299Z,9.55
2023-06-30T13:04:39.237Z,9.64
2023-06-30T13:05:38.236Z,9.58
2023-06-30T13:06:39.264Z,9.97
2023-06-30T13:07:38.373Z,10.15